San Perlita, Texas
Current Conditions -  °F | °C
As of 5:52 AM on Friday 24 Oct 2014 (Local Time) from KHRL Reporting Station
Clear Clear  
Wind Chill: 17°   Ceiling: Unl
Heat Index: 17°   Visibility: 7mi
Dew Point: 17°   Wind: 6mph
Humidity: 100%   Direction: 350°N
Pressure: 30.06"   Gusts: NA
Location:  26.5°N, 97.64°W
Report Text: KHRL 241052Z 35005KT 7SM CLR 17/17 A3006 RMK AO2 SLP179 T01720172
Loading
Personal Weather Stations






























Interactive Weather Map
Tropical Storm Tracking
New forecast layout! Learn more

10-Day Weather Forecast

Advertisements
Track Severe Weather on mobile